sensor_id;sensor_type;location;lat;lon;timestamp;temperature;humidity
23591;DHT22;11973;52.098;7.582;2023-01-29T00:01:33;1.40;99.90
23591;DHT22;11973;52.098;7.582;2023-01-29T00:03:59;1.40;99.90
23591;DHT22;11973;52.098;7.582;2023-01-29T00:06:28;1.40;99.90
23591;DHT22;11973;52.098;7.582;2023-01-29T00:08:54;1.40;99.90
23591;DHT22;11973;52.098;7.582;2023-01-29T00:11:21;1.40;99.90
23591;DHT22;11973;52.098;7.582;2023-01-29T00:13:49;1.40;99.90
23591;DHT22;11973;52.098;7.582;2023-01-29T00:16:15;1.40;99.90
23591;DHT22;11973;52.098;7.582;2023-01-29T00:18:41;1.40;99.90
23591;DHT22;11973;52.098;7.582;2023-01-29T00:21:17;1.40;99.90
23591;DHT22;11973;52.098;7.582;2023-01-29T00:23:44;1.40;99.90
23591;DHT22;11973;52.098;7.582;2023-01-29T00:26:11;1.40;99.90
23591;DHT22;11973;52.098;7.582;2023-01-29T00:28:43;1.40;99.90
23591;DHT22;11973;52.098;7.582;2023-01-29T00:31:11;1.40;99.90
23591;DHT22;11973;52.098;7.582;2023-01-29T00:33:43;1.40;99.90
23591;DHT22;11973;52.098;7.582;2023-01-29T00:36:11;1.40;99.90
23591;DHT22;11973;52.098;7.582;2023-01-29T00:38:41;1.40;99.90
23591;DHT22;11973;52.098;7.582;2023-01-29T00:41:13;1.40;99.90
23591;DHT22;11973;52.098;7.582;2023-01-29T00:44:00;1.40;99.90
23591;DHT22;11973;52.098;7.582;2023-01-29T00:46:45;1.40;99.90
23591;DHT22;11973;52.098;7.582;2023-01-29T00:49:13;1.40;99.90
23591;DHT22;11973;52.098;7.582;2023-01-29T00:51:39;1.40;99.90
23591;DHT22;11973;52.098;7.582;2023-01-29T00:54:06;1.40;99.90
23591;DHT22;11973;52.098;7.582;2023-01-29T00:56:34;1.40;99.90
23591;DHT22;11973;52.098;7.582;2023-01-29T00:59:02;1.40;99.90
23591;DHT22;11973;52.098;7.582;2023-01-29T01:01:28;1.40;99.90
23591;DHT22;11973;52.098;7.582;2023-01-29T01:04:13;1.40;99.90
23591;DHT22;11973;52.098;7.582;2023-01-29T01:06:42;1.40;99.90
23591;DHT22;11973;52.098;7.582;2023-01-29T01:09:09;1.40;99.90
23591;DHT22;11973;52.098;7.582;2023-01-29T01:11:55;1.40;99.90
23591;DHT22;11973;52.098;7.582;2023-01-29T01:14:21;1.40;99.90
23591;DHT22;11973;52.098;7.582;2023-01-29T01:16:48;1.40;99.90
23591;DHT22;11973;52.098;7.582;2023-01-29T01:19:14;1.40;99.90
23591;DHT22;11973;52.098;7.582;2023-01-29T01:21:41;1.40;99.90
23591;DHT22;11973;52.098;7.582;2023-01-29T01:24:13;1.40;99.90
23591;DHT22;11973;52.098;7.582;2023-01-29T01:26:39;1.40;99.90
23591;DHT22;11973;52.098;7.582;2023-01-29T01:29:05;1.40;99.90
23591;DHT22;11973;52.098;7.582;2023-01-29T01:31:31;1.40;99.90
23591;DHT22;11973;52.098;7.582;2023-01-29T01:33:56;1.40;99.90
23591;DHT22;11973;52.098;7.582;2023-01-29T01:36:22;1.60;99.90
23591;DHT22;11973;52.098;7.582;2023-01-29T01:38:48;1.40;99.90
23591;DHT22;11973;52.098;7.582;2023-01-29T01:41:16;1.50;99.90
23591;DHT22;11973;52.098;7.582;2023-01-29T01:44:00;1.40;99.90
23591;DHT22;11973;52.098;7.582;2023-01-29T01:46:35;1.40;99.90
23591;DHT22;11973;52.098;7.582;2023-01-29T01:49:10;1.40;99.90
23591;DHT22;11973;52.098;7.582;2023-01-29T01:51:40;1.40;99.90
23591;DHT22;11973;52.098;7.582;2023-01-29T01:54:23;1.40;99.90
23591;DHT22;11973;52.098;7.582;2023-01-29T01:57:05;1.40;99.90
23591;DHT22;11973;52.098;7.582;2023-01-29T01:59:46;1.40;99.90
23591;DHT22;11973;52.098;7.582;2023-01-29T02:02:14;1.40;99.90
23591;DHT22;11973;52.098;7.582;2023-01-29T02:04:59;1.40;99.90
23591;DHT22;11973;52.098;7.582;2023-01-29T02:07:45;1.40;99.90
23591;DHT22;11973;52.098;7.582;2023-01-29T02:10:45;1.40;99.90
23591;DHT22;11973;52.098;7.582;2023-01-29T02:13:11;1.40;99.90
23591;DHT22;11973;52.098;7.582;2023-01-29T02:15:41;1.40;99.90
23591;DHT22;11973;52.098;7.582;2023-01-29T02:18:12;1.40;99.90
23591;DHT22;11973;52.098;7.582;2023-01-29T02:20:42;1.40;99.90
23591;DHT22;11973;52.098;7.582;2023-01-29T02:26:08;1.20;99.90
23591;DHT22;11973;52.098;7.582;2023-01-29T02:28:46;1.40;99.90
23591;DHT22;11973;52.098;7.582;2023-01-29T02:31:40;1.40;99.90
23591;DHT22;11973;52.098;7.582;2023-01-29T02:34:17;1.40;99.90
23591;DHT22;11973;52.098;7.582;2023-01-29T02:37:05;1.40;99.90
23591;DHT22;11973;52.098;7.582;2023-01-29T02:39:40;1.40;99.90
23591;DHT22;11973;52.098;7.582;2023-01-29T02:42:54;1.40;99.90
23591;DHT22;11973;52.098;7.582;2023-01-29T02:45:16;1.40;99.90
23591;DHT22;11973;52.098;7.582;2023-01-29T02:47:56;1.40;99.90
23591;DHT22;11973;52.098;7.582;2023-01-29T02:50:37;1.40;99.90
23591;DHT22;11973;52.098;7.582;2023-01-29T02:53:28;1.50;99.90
23591;DHT22;11973;52.098;7.582;2023-01-29T02:56:17;1.50;99.90
23591;DHT22;11973;52.098;7.582;2023-01-29T02:58:59;1.50;99.90
23591;DHT22;11973;52.098;7.582;2023-01-29T03:01:30;1.50;99.90
23591;DHT22;11973;52.098;7.582;2023-01-29T03:04:06;1.60;99.90
23591;DHT22;11973;52.098;7.582;2023-01-29T03:06:37;1.50;99.90
23591;DHT22;11973;52.098;7.582;2023-01-29T03:09:12;1.50;99.90
23591;DHT22;11973;52.098;7.582;2023-01-29T03:11:48;1.50;99.90
23591;DHT22;11973;52.098;7.582;2023-01-29T03:14:30;1.50;99.90
23591;DHT22;11973;52.098;7.582;2023-01-29T03:17:19;1.50;99.90
23591;DHT22;11973;52.098;7.582;2023-01-29T03:19:48;1.50;99.90
23591;DHT22;11973;52.098;7.582;2023-01-29T03:22:22;1.50;99.90
23591;DHT22;11973;52.098;7.582;2023-01-29T03:24:54;1.50;99.90
23591;DHT22;11973;52.098;7.582;2023-01-29T03:27:45;1.50;99.90
23591;DHT22;11973;52.098;7.582;2023-01-29T03:30:43;1.50;99.90
23591;DHT22;11973;52.098;7.582;2023-01-29T03:34:08;1.50;99.90
23591;DHT22;11973;52.098;7.582;2023-01-29T03:39:15;1.50;99.90
23591;DHT22;11973;52.098;7.582;2023-01-29T03:41:57;1.50;99.90
23591;DHT22;11973;52.098;7.582;2023-01-29T03:44:41;1.50;99.90
23591;DHT22;11973;52.098;7.582;2023-01-29T03:47:44;1.50;99.90
23591;DHT22;11973;52.098;7.582;2023-01-29T03:52:50;1.60;99.90
23591;DHT22;11973;52.098;7.582;2023-01-29T03:55:34;1.50;99.90
23591;DHT22;11973;52.098;7.582;2023-01-29T04:00:55;1.50;99.90
23591;DHT22;11973;52.098;7.582;2023-01-29T04:06:20;1.50;99.90
23591;DHT22;11973;52.098;7.582;2023-01-29T04:09:08;1.60;99.90
23591;DHT22;11973;52.098;7.582;2023-01-29T04:11:43;1.60;99.90
23591;DHT22;11973;52.098;7.582;2023-01-29T04:14:10;1.50;99.90
23591;DHT22;11973;52.098;7.582;2023-01-29T04:16:40;1.50;99.90
23591;DHT22;11973;52.098;7.582;2023-01-29T04:19:33;1.50;99.90
23591;DHT22;11973;52.098;7.582;2023-01-29T04:22:05;1.50;99.90
23591;DHT22;11973;52.098;7.582;2023-01-29T04:24:33;1.50;99.90
23591;DHT22;11973;52.098;7.582;2023-01-29T04:27:24;1.60;99.90
23591;DHT22;11973;52.098;7.582;2023-01-29T04:35:34;1.60;99.90
23591;DHT22;11973;52.098;7.582;2023-01-29T04:38:11;1.60;99.90
23591;DHT22;11973;52.098;7.582;2023-01-29T04:40:56;1.60;99.90
23591;DHT22;11973;52.098;7.582;2023-01-29T04:46:18;1.60;99.90
23591;DHT22;11973;52.098;7.582;2023-01-29T04:49:00;1.60;99.90
23591;DHT22;11973;52.098;7.582;2023-01-29T04:56:59;1.60;99.90
23591;DHT22;11973;52.098;7.582;2023-01-29T04:59:31;1.60;99.90
23591;DHT22;11973;52.098;7.582;2023-01-29T05:02:00;1.60;99.90
23591;DHT22;11973;52.098;7.582;2023-01-29T05:04:28;1.60;99.90
23591;DHT22;11973;52.098;7.582;2023-01-29T05:06:56;1.60;99.90
23591;DHT22;11973;52.098;7.582;2023-01-29T05:09:22;1.60;99.90
23591;DHT22;11973;52.098;7.582;2023-01-29T05:11:49;1.60;99.90
23591;DHT22;11973;52.098;7.582;2023-01-29T05:14:17;1.60;99.90
23591;DHT22;11973;52.098;7.582;2023-01-29T06:16:05;1.50;99.90
23591;DHT22;11973;52.098;7.582;2023-01-29T06:18:31;1.50;99.90
23591;DHT22;11973;52.098;7.582;2023-01-29T06:21:01;1.50;99.90
23591;DHT22;11973;52.098;7.582;2023-01-29T06:23:27;1.70;99.90
23591;DHT22;11973;52.098;7.582;2023-01-29T06:25:53;1.50;99.90
23591;DHT22;11973;52.098;7.582;2023-01-29T06:28:18;1.50;99.90
23591;DHT22;11973;52.098;7.582;2023-01-29T06:30:44;1.50;99.90
23591;DHT22;11973;52.098;7.582;2023-01-29T06:33:10;1.50;99.90
23591;DHT22;11973;52.098;7.582;2023-01-29T06:35:35;1.50;99.90
23591;DHT22;11973;52.098;7.582;2023-01-29T06:38:01;1.50;99.90
23591;DHT22;11973;52.098;7.582;2023-01-29T06:40:27;1.70;99.90
23591;DHT22;11973;52.098;7.582;2023-01-29T06:42:52;1.50;99.90
23591;DHT22;11973;52.098;7.582;2023-01-29T06:45:18;1.50;99.90
23591;DHT22;11973;52.098;7.582;2023-01-29T06:47:44;1.50;99.90
23591;DHT22;11973;52.098;7.582;2023-01-29T06:50:10;1.50;99.90
23591;DHT22;11973;52.098;7.582;2023-01-29T06:52:36;1.50;99.90
23591;DHT22;11973;52.098;7.582;2023-01-29T06:55:01;1.50;99.90
23591;DHT22;11973;52.098;7.582;2023-01-29T06:57:30;1.50;99.90
23591;DHT22;11973;52.098;7.582;2023-01-29T06:59:56;1.50;99.90
23591;DHT22;11973;52.098;7.582;2023-01-29T07:02:21;1.60;99.90
23591;DHT22;11973;52.098;7.582;2023-01-29T07:04:47;1.50;99.90
23591;DHT22;11973;52.098;7.582;2023-01-29T07:07:13;1.50;99.90
23591;DHT22;11973;52.098;7.582;2023-01-29T07:09:40;1.50;99.90
23591;DHT22;11973;52.098;7.582;2023-01-29T07:12:06;1.50;99.90
23591;DHT22;11973;52.098;7.582;2023-01-29T07:14:32;1.50;99.90
23591;DHT22;11973;52.098;7.582;2023-01-29T07:16:57;1.50;99.90
23591;DHT22;11973;52.098;7.582;2023-01-29T07:19:23;1.50;99.90
23591;DHT22;11973;52.098;7.582;2023-01-29T07:21:49;1.50;99.90
23591;DHT22;11973;52.098;7.582;2023-01-29T07:24:14;1.50;99.90
23591;DHT22;11973;52.098;7.582;2023-01-29T07:26:41;1.50;99.90
23591;DHT22;11973;52.098;7.582;2023-01-29T07:29:07;1.50;99.90
23591;DHT22;11973;52.098;7.582;2023-01-29T07:31:32;1.50;99.90
23591;DHT22;11973;52.098;7.582;2023-01-29T07:33:58;1.50;99.90
23591;DHT22;11973;52.098;7.582;2023-01-29T07:36:24;1.50;99.90
23591;DHT22;11973;52.098;7.582;2023-01-29T07:38:50;1.60;99.90
23591;DHT22;11973;52.098;7.582;2023-01-29T07:41:16;1.60;99.90
23591;DHT22;11973;52.098;7.582;2023-01-29T07:43:44;1.60;99.90
23591;DHT22;11973;52.098;7.582;2023-01-29T07:46:10;1.60;99.90
23591;DHT22;11973;52.098;7.582;2023-01-29T07:48:36;1.60;99.90
23591;DHT22;11973;52.098;7.582;2023-01-29T07:51:01;1.60;99.90
23591;DHT22;11973;52.098;7.582;2023-01-29T07:53:28;1.60;99.90
23591;DHT22;11973;52.098;7.582;2023-01-29T07:55:54;1.60;99.90
23591;DHT22;11973;52.098;7.582;2023-01-29T07:58:20;1.60;99.90
23591;DHT22;11973;52.098;7.582;2023-01-29T08:00:45;1.60;99.90
23591;DHT22;11973;52.098;7.582;2023-01-29T08:03:14;1.60;99.90
23591;DHT22;11973;52.098;7.582;2023-01-29T08:05:44;1.60;99.90
23591;DHT22;11973;52.098;7.582;2023-01-29T08:08:10;1.60;99.90
23591;DHT22;11973;52.098;7.582;2023-01-29T08:10:38;1.60;99.90
23591;DHT22;11973;52.098;7.582;2023-01-29T08:13:04;1.60;99.90
23591;DHT22;11973;52.098;7.582;2023-01-29T08:15:31;1.60;99.90
23591;DHT22;11973;52.098;7.582;2023-01-29T08:17:57;1.60;99.90
23591;DHT22;11973;52.098;7.582;2023-01-29T08:20:23;1.60;99.90
23591;DHT22;11973;52.098;7.582;2023-01-29T08:22:49;1.60;99.90
23591;DHT22;11973;52.098;7.582;2023-01-29T08:25:15;1.70;99.90
23591;DHT22;11973;52.098;7.582;2023-01-29T08:27:41;1.70;99.90
23591;DHT22;11973;52.098;7.582;2023-01-29T08:30:08;1.70;99.90
23591;DHT22;11973;52.098;7.582;2023-01-29T08:32:34;1.70;99.90
23591;DHT22;11973;52.098;7.582;2023-01-29T08:34:59;1.80;99.90
23591;DHT22;11973;52.098;7.582;2023-01-29T08:37:25;1.80;99.90
23591;DHT22;11973;52.098;7.582;2023-01-29T08:39:51;1.80;99.90
23591;DHT22;11973;52.098;7.582;2023-01-29T08:42:17;1.80;99.90
23591;DHT22;11973;52.098;7.582;2023-01-29T08:44:43;1.90;99.90
23591;DHT22;11973;52.098;7.582;2023-01-29T08:47:08;2.20;99.90
23591;DHT22;11973;52.098;7.582;2023-01-29T08:49:34;2.20;99.90
23591;DHT22;11973;52.098;7.582;2023-01-29T08:52:00;2.00;99.90
23591;DHT22;11973;52.098;7.582;2023-01-29T08:54:25;2.00;99.90
23591;DHT22;11973;52.098;7.582;2023-01-29T08:56:51;2.10;99.90
23591;DHT22;11973;52.098;7.582;2023-01-29T08:59:17;2.10;99.90
23591;DHT22;11973;52.098;7.582;2023-01-29T09:01:43;2.20;99.90
23591;DHT22;11973;52.098;7.582;2023-01-29T09:04:13;2.20;99.90
23591;DHT22;11973;52.098;7.582;2023-01-29T09:06:38;2.30;99.90
23591;DHT22;11973;52.098;7.582;2023-01-29T09:09:04;2.20;99.90
23591;DHT22;11973;52.098;7.582;2023-01-29T09:11:30;2.30;99.90
23591;DHT22;11973;52.098;7.582;2023-01-29T09:13:55;2.30;99.90
23591;DHT22;11973;52.098;7.582;2023-01-29T09:16:21;2.50;99.90
23591;DHT22;11973;52.098;7.582;2023-01-29T09:18:47;2.30;99.90
23591;DHT22;11973;52.098;7.582;2023-01-29T09:21:12;2.30;99.90
23591;DHT22;11973;52.098;7.582;2023-01-29T09:23:38;2.30;99.90
23591;DHT22;11973;52.098;7.582;2023-01-29T09:26:06;2.30;99.90
23591;DHT22;11973;52.098;7.582;2023-01-29T09:28:31;2.40;99.90
23591;DHT22;11973;52.098;7.582;2023-01-29T09:31:00;2.40;99.90
23591;DHT22;11973;52.098;7.582;2023-01-29T09:33:27;2.40;99.90
23591;DHT22;11973;52.098;7.582;2023-01-29T09:35:52;2.40;99.90
23591;DHT22;11973;52.098;7.582;2023-01-29T09:38:18;2.40;99.90
23591;DHT22;11973;52.098;7.582;2023-01-29T09:40:59;2.40;99.90
23591;DHT22;11973;52.098;7.582;2023-01-29T09:46:22;2.50;99.90
23591;DHT22;11973;52.098;7.582;2023-01-29T09:49:00;2.50;99.90
23591;DHT22;11973;52.098;7.582;2023-01-29T09:51:31;2.50;99.90
23591;DHT22;11973;52.098;7.582;2023-01-29T09:56:31;2.50;99.90
23591;DHT22;11973;52.098;7.582;2023-01-29T09:58:58;2.50;99.90
23591;DHT22;11973;52.098;7.582;2023-01-29T10:01:49;2.70;99.90
23591;DHT22;11973;52.098;7.582;2023-01-29T10:04:48;2.50;99.90
23591;DHT22;11973;52.098;7.582;2023-01-29T10:16:59;2.60;99.90
23591;DHT22;11973;52.098;7.582;2023-01-29T10:19:06;2.60;99.90
23591;DHT22;11973;52.098;7.582;2023-01-29T10:27:02;2.70;99.90
23591;DHT22;11973;52.098;7.582;2023-01-29T10:29:43;2.70;99.90
23591;DHT22;11973;52.098;7.582;2023-01-29T10:32:20;2.70;99.90
23591;DHT22;11973;52.098;7.582;2023-01-29T10:35:23;2.60;99.90
23591;DHT22;11973;52.098;7.582;2023-01-29T10:37:53;2.70;99.90
23591;DHT22;11973;52.098;7.582;2023-01-29T10:46:10;2.60;99.90
23591;DHT22;11973;52.098;7.582;2023-01-29T10:54:43;2.70;99.90
23591;DHT22;11973;52.098;7.582;2023-01-29T10:58:00;2.80;99.90
23591;DHT22;11973;52.098;7.582;2023-01-29T11:00:12;2.80;99.90
23591;DHT22;11973;52.098;7.582;2023-01-29T11:02:47;2.80;99.90
23591;DHT22;11973;52.098;7.582;2023-01-29T11:08:04;2.90;99.90
23591;DHT22;11973;52.098;7.582;2023-01-29T11:10:39;2.90;99.90
23591;DHT22;11973;52.098;7.582;2023-01-29T11:13:13;2.90;99.90
23591;DHT22;11973;52.098;7.582;2023-01-29T11:15:39;2.90;99.90
23591;DHT22;11973;52.098;7.582;2023-01-29T11:18:12;3.00;99.90
23591;DHT22;11973;52.098;7.582;2023-01-29T11:20:43;3.00;99.90
23591;DHT22;11973;52.098;7.582;2023-01-29T11:23:25;3.00;99.90
23591;DHT22;11973;52.098;7.582;2023-01-29T11:25:53;3.00;99.90
23591;DHT22;11973;52.098;7.582;2023-01-29T11:31:15;3.10;99.90
23591;DHT22;11973;52.098;7.582;2023-01-29T11:33:43;3.10;99.90
23591;DHT22;11973;52.098;7.582;2023-01-29T11:39:24;3.20;99.90
23591;DHT22;11973;52.098;7.582;2023-01-29T11:42:18;3.20;99.90
23591;DHT22;11973;52.098;7.582;2023-01-29T11:44:44;3.20;99.90
23591;DHT22;11973;52.098;7.582;2023-01-29T11:47:15;3.20;99.90
23591;DHT22;11973;52.098;7.582;2023-01-29T11:49:51;3.20;99.90
23591;DHT22;11973;52.098;7.582;2023-01-29T11:52:20;3.30;99.90
23591;DHT22;11973;52.098;7.582;2023-01-29T11:54:59;3.30;99.90
23591;DHT22;11973;52.098;7.582;2023-01-29T11:57:38;3.30;99.90
23591;DHT22;11973;52.098;7.582;2023-01-29T12:00:26;3.30;99.90
23591;DHT22;11973;52.098;7.582;2023-01-29T12:05:26;3.30;99.90
23591;DHT22;11973;52.098;7.582;2023-01-29T12:07:54;3.40;99.90
23591;DHT22;11973;52.098;7.582;2023-01-29T12:10:31;3.40;99.90
23591;DHT22;11973;52.098;7.582;2023-01-29T12:15:37;3.40;99.90
23591;DHT22;11973;52.098;7.582;2023-01-29T12:18:31;3.40;99.90
23591;DHT22;11973;52.098;7.582;2023-01-29T12:27:00;3.40;99.90
23591;DHT22;11973;52.098;7.582;2023-01-29T12:32:32;3.50;99.90
23591;DHT22;11973;52.098;7.582;2023-01-29T12:37:57;3.50;99.90
23591;DHT22;11973;52.098;7.582;2023-01-29T12:40:32;3.50;99.90
23591;DHT22;11973;52.098;7.582;2023-01-29T12:43:08;3.60;99.90
23591;DHT22;11973;52.098;7.582;2023-01-29T12:45:37;3.60;99.90
23591;DHT22;11973;52.098;7.582;2023-01-29T12:48:25;3.60;99.90
23591;DHT22;11973;52.098;7.582;2023-01-29T12:50:52;3.60;99.90
23591;DHT22;11973;52.098;7.582;2023-01-29T12:53:30;3.80;99.90
23591;DHT22;11973;52.098;7.582;2023-01-29T12:56:22;3.60;99.90
23591;DHT22;11973;52.098;7.582;2023-01-29T12:58:53;3.60;99.90
23591;DHT22;11973;52.098;7.582;2023-01-29T13:01:30;3.60;99.90
23591;DHT22;11973;52.098;7.582;2023-01-29T13:04:18;3.60;99.90
23591;DHT22;11973;52.098;7.582;2023-01-29T13:06:59;3.70;99.90
23591;DHT22;11973;52.098;7.582;2023-01-29T13:09:29;3.50;99.90
23591;DHT22;11973;52.098;7.582;2023-01-29T13:12:06;3.50;99.90
23591;DHT22;11973;52.098;7.582;2023-01-29T13:14:43;3.50;99.90
23591;DHT22;11973;52.098;7.582;2023-01-29T13:17:22;3.50;99.90
23591;DHT22;11973;52.098;7.582;2023-01-29T13:19:52;3.40;99.90
23591;DHT22;11973;52.098;7.582;2023-01-29T13:22:24;3.40;99.90
23591;DHT22;11973;52.098;7.582;2023-01-29T13:24:55;3.60;99.90
23591;DHT22;11973;52.098;7.582;2023-01-29T13:27:29;3.40;99.90
23591;DHT22;11973;52.098;7.582;2023-01-29T13:29:56;3.30;99.90
23591;DHT22;11973;52.098;7.582;2023-01-29T13:32:28;3.40;99.90
23591;DHT22;11973;52.098;7.582;2023-01-29T13:35:11;3.30;99.90
23591;DHT22;11973;52.098;7.582;2023-01-29T13:37:47;3.30;99.90
23591;DHT22;11973;52.098;7.582;2023-01-29T13:40:23;3.30;99.90
23591;DHT22;11973;52.098;7.582;2023-01-29T13:42:51;3.30;99.90
23591;DHT22;11973;52.098;7.582;2023-01-29T13:47:50;3.30;99.90
23591;DHT22;11973;52.098;7.582;2023-01-29T13:50:36;3.30;99.90
23591;DHT22;11973;52.098;7.582;2023-01-29T13:53:04;3.50;99.90
23591;DHT22;11973;52.098;7.582;2023-01-29T13:55:32;3.50;99.90
23591;DHT22;11973;52.098;7.582;2023-01-29T13:58:07;3.20;99.90
23591;DHT22;11973;52.098;7.582;2023-01-29T14:08:05;3.20;99.90
23591;DHT22;11973;52.098;7.582;2023-01-29T14:10:33;3.20;99.90
23591;DHT22;11973;52.098;7.582;2023-01-29T14:15:31;3.40;99.90
23591;DHT22;11973;52.098;7.582;2023-01-29T14:18:12;3.20;99.90
23591;DHT22;11973;52.098;7.582;2023-01-29T14:20:51;3.10;99.90
23591;DHT22;11973;52.098;7.582;2023-01-29T14:23:38;3.10;99.90
23591;DHT22;11973;52.098;7.582;2023-01-29T14:31:59;3.10;99.90
23591;DHT22;11973;52.098;7.582;2023-01-29T14:36:55;3.10;99.90
23591;DHT22;11973;52.098;7.582;2023-01-29T14:39:40;3.20;99.90
23591;DHT22;11973;52.098;7.582;2023-01-29T14:42:28;3.10;99.90
23591;DHT22;11973;52.098;7.582;2023-01-29T14:49:58;3.10;99.90
23591;DHT22;11973;52.098;7.582;2023-01-29T14:52:34;3.10;99.90
23591;DHT22;11973;52.098;7.582;2023-01-29T14:55:03;3.10;99.90
23591;DHT22;11973;52.098;7.582;2023-01-29T14:57:31;3.10;99.90
23591;DHT22;11973;52.098;7.582;2023-01-29T15:00:00;3.00;99.90
23591;DHT22;11973;52.098;7.582;2023-01-29T15:02:37;3.00;99.90
23591;DHT22;11973;52.098;7.582;2023-01-29T15:05:09;3.10;99.90
23591;DHT22;11973;52.098;7.582;2023-01-29T15:07:43;3.00;99.90
23591;DHT22;11973;52.098;7.582;2023-01-29T15:15:46;2.90;99.90
23591;DHT22;11973;52.098;7.582;2023-01-29T15:18:19;2.90;99.90
23591;DHT22;11973;52.098;7.582;2023-01-29T15:20:47;2.90;99.90
23591;DHT22;11973;52.098;7.582;2023-01-29T15:23:28;2.90;99.90
23591;DHT22;11973;52.098;7.582;2023-01-29T15:26:00;2.80;99.90
23591;DHT22;11973;52.098;7.582;2023-01-29T15:28:32;2.80;99.90
23591;DHT22;11973;52.098;7.582;2023-01-29T15:31:01;2.80;99.90
23591;DHT22;11973;52.098;7.582;2023-01-29T15:33:29;2.80;99.90
23591;DHT22;11973;52.098;7.582;2023-01-29T15:36:00;2.90;99.90
23591;DHT22;11973;52.098;7.582;2023-01-29T15:38:27;2.90;99.90
23591;DHT22;11973;52.098;7.582;2023-01-29T15:43:44;2.70;99.90
23591;DHT22;11973;52.098;7.582;2023-01-29T15:46:31;2.70;99.90
23591;DHT22;11973;52.098;7.582;2023-01-29T15:49:05;2.70;99.90
23591;DHT22;11973;52.098;7.582;2023-01-29T15:51:31;2.70;99.90
23591;DHT22;11973;52.098;7.582;2023-01-29T15:53:59;2.70;99.90
23591;DHT22;11973;52.098;7.582;2023-01-29T15:56:37;2.70;99.90
23591;DHT22;11973;52.098;7.582;2023-01-29T15:59:06;2.70;99.90
23591;DHT22;11973;52.098;7.582;2023-01-29T16:01:38;2.60;99.90
23591;DHT22;11973;52.098;7.582;2023-01-29T16:04:12;2.60;99.90
23591;DHT22;11973;52.098;7.582;2023-01-29T16:06:39;2.60;99.90
23591;DHT22;11973;52.098;7.582;2023-01-29T16:09:06;2.60;99.90
23591;DHT22;11973;52.098;7.582;2023-01-29T16:11:33;2.60;99.90
23591;DHT22;11973;52.098;7.582;2023-01-29T16:14:00;2.60;99.90
23591;DHT22;11973;52.098;7.582;2023-01-29T16:16:27;2.60;99.90
23591;DHT22;11973;52.098;7.582;2023-01-29T16:18:53;2.70;99.90
23591;DHT22;11973;52.098;7.582;2023-01-29T16:26:31;2.60;99.90
23591;DHT22;11973;52.098;7.582;2023-01-29T16:29:04;2.50;99.90
23591;DHT22;11973;52.098;7.582;2023-01-29T16:31:31;2.50;99.90
23591;DHT22;11973;52.098;7.582;2023-01-29T16:33:58;2.50;99.90
23591;DHT22;11973;52.098;7.582;2023-01-29T16:36:27;2.50;99.90
23591;DHT22;11973;52.098;7.582;2023-01-29T16:39:01;2.50;99.90
23591;DHT22;11973;52.098;7.582;2023-01-29T16:41:32;2.50;99.90
23591;DHT22;11973;52.098;7.582;2023-01-29T16:53:09;2.50;99.90
23591;DHT22;11973;52.098;7.582;2023-01-29T16:55:38;2.50;99.90
23591;DHT22;11973;52.098;7.582;2023-01-29T16:58:14;2.50;99.90
23591;DHT22;11973;52.098;7.582;2023-01-29T17:00:57;2.50;99.90
23591;DHT22;11973;52.098;7.582;2023-01-29T17:03:25;2.50;99.90
23591;DHT22;11973;52.098;7.582;2023-01-29T17:05:52;2.50;99.90
23591;DHT22;11973;52.098;7.582;2023-01-29T17:08:25;2.50;99.90
23591;DHT22;11973;52.098;7.582;2023-01-29T17:10:52;2.50;99.90
23591;DHT22;11973;52.098;7.582;2023-01-29T17:13:26;2.50;99.90
23591;DHT22;11973;52.098;7.582;2023-01-29T17:15:58;2.50;99.90
23591;DHT22;11973;52.098;7.582;2023-01-29T17:18:26;2.50;99.90
23591;DHT22;11973;52.098;7.582;2023-01-29T17:20:52;2.50;99.90
23591;DHT22;11973;52.098;7.582;2023-01-29T17:23:18;2.50;99.90
23591;DHT22;11973;52.098;7.582;2023-01-29T17:25:45;2.50;99.90
23591;DHT22;11973;52.098;7.582;2023-01-29T17:28:15;2.50;99.90
23591;DHT22;11973;52.098;7.582;2023-01-29T17:30:42;2.60;99.90
23591;DHT22;11973;52.098;7.582;2023-01-29T17:33:12;2.50;99.90
23591;DHT22;11973;52.098;7.582;2023-01-29T17:35:39;2.50;99.90
23591;DHT22;11973;52.098;7.582;2023-01-29T17:38:17;2.50;99.90
23591;DHT22;11973;52.098;7.582;2023-01-29T17:40:53;2.50;99.90
23591;DHT22;11973;52.098;7.582;2023-01-29T17:43:20;2.50;99.90
23591;DHT22;11973;52.098;7.582;2023-01-29T17:45:46;2.70;99.90
23591;DHT22;11973;52.098;7.582;2023-01-29T17:48:18;2.50;99.90
23591;DHT22;11973;52.098;7.582;2023-01-29T17:50:46;2.50;99.90
23591;DHT22;11973;52.098;7.582;2023-01-29T17:53:16;2.50;99.90
23591;DHT22;11973;52.098;7.582;2023-01-29T17:55:43;2.50;99.90
23591;DHT22;11973;52.098;7.582;2023-01-29T17:58:20;2.50;99.90
23591;DHT22;11973;52.098;7.582;2023-01-29T18:00:47;2.50;99.90
23591;DHT22;11973;52.098;7.582;2023-01-29T18:03:14;2.50;99.90
23591;DHT22;11973;52.098;7.582;2023-01-29T18:05:41;2.50;99.90
23591;DHT22;11973;52.098;7.582;2023-01-29T18:08:19;2.50;99.90
23591;DHT22;11973;52.098;7.582;2023-01-29T18:10:46;2.50;99.90
23591;DHT22;11973;52.098;7.582;2023-01-29T18:13:20;2.60;99.90
23591;DHT22;11973;52.098;7.582;2023-01-29T18:15:46;2.60;99.90
23591;DHT22;11973;52.098;7.582;2023-01-29T18:18:14;2.60;99.90
23591;DHT22;11973;52.098;7.582;2023-01-29T18:20:40;2.60;99.90
23591;DHT22;11973;52.098;7.582;2023-01-29T18:23:07;2.60;99.90
23591;DHT22;11973;52.098;7.582;2023-01-29T18:25:33;2.60;99.90
23591;DHT22;11973;52.098;7.582;2023-01-29T18:27:59;2.60;99.90
23591;DHT22;11973;52.098;7.582;2023-01-29T18:30:25;2.60;99.90
23591;DHT22;11973;52.098;7.582;2023-01-29T18:32:51;2.60;99.90
23591;DHT22;11973;52.098;7.582;2023-01-29T18:35:19;2.60;99.90
23591;DHT22;11973;52.098;7.582;2023-01-29T18:37:45;2.60;99.90
23591;DHT22;11973;52.098;7.582;2023-01-29T18:40:11;2.60;99.90
23591;DHT22;11973;52.098;7.582;2023-01-29T18:42:44;2.60;99.90
23591;DHT22;11973;52.098;7.582;2023-01-29T18:45:10;2.60;99.90
23591;DHT22;11973;52.098;7.582;2023-01-29T18:47:37;2.60;99.90
23591;DHT22;11973;52.098;7.582;2023-01-29T18:50:03;2.60;99.90
23591;DHT22;11973;52.098;7.582;2023-01-29T18:52:29;2.50;99.90
23591;DHT22;11973;52.098;7.582;2023-01-29T18:54:54;2.50;99.90
23591;DHT22;11973;52.098;7.582;2023-01-29T18:57:20;2.50;99.90
23591;DHT22;11973;52.098;7.582;2023-01-29T18:59:47;2.50;99.90
23591;DHT22;11973;52.098;7.582;2023-01-29T19:02:14;2.50;99.90
23591;DHT22;11973;52.098;7.582;2023-01-29T19:04:41;2.50;99.90
23591;DHT22;11973;52.098;7.582;2023-01-29T19:07:10;2.50;99.90
23591;DHT22;11973;52.098;7.582;2023-01-29T19:09:36;2.50;99.90
23591;DHT22;11973;52.098;7.582;2023-01-29T19:12:03;2.50;99.90
23591;DHT22;11973;52.098;7.582;2023-01-29T19:14:29;2.50;99.90
23591;DHT22;11973;52.098;7.582;2023-01-29T19:16:55;2.50;99.90
23591;DHT22;11973;52.098;7.582;2023-01-29T19:19:21;2.40;99.90
23591;DHT22;11973;52.098;7.582;2023-01-29T19:21:47;2.40;99.90
23591;DHT22;11973;52.098;7.582;2023-01-29T19:24:13;2.50;99.90
23591;DHT22;11973;52.098;7.582;2023-01-29T19:26:39;2.40;99.90